createdAt,value
2018-03-14T00:00:15.219Z,1005.57
2018-03-14T00:01:15.232Z,1005.57
2018-03-14T00:02:15.244Z,1005.58
2018-03-14T00:03:15.260Z,1005.57
2018-03-14T00:04:15.271Z,1005.58
2018-03-14T00:05:15.279Z,1005.59
2018-03-14T00:06:15.289Z,1005.60
2018-03-14T00:07:15.302Z,1005.66
2018-03-14T00:08:15.316Z,1005.65
2018-03-14T00:09:15.325Z,1005.62
2018-03-14T00:10:15.384Z,1005.65
2018-03-14T00:11:15.349Z,1005.61
2018-03-14T00:12:15.360Z,1005.64
2018-03-14T00:13:15.370Z,1005.63
2018-03-14T00:14:15.383Z,1005.59
2018-03-14T00:15:15.396Z,1005.64
2018-03-14T00:16:15.409Z,1005.59
2018-03-14T00:17:15.417Z,1005.63
2018-03-14T00:18:15.432Z,1005.60
2018-03-14T00:19:15.442Z,1005.64
2018-03-14T00:20:15.454Z,1005.63
2018-03-14T00:21:15.464Z,1005.67
2018-03-14T00:22:15.477Z,1005.69
2018-03-14T00:23:15.488Z,1005.68
2018-03-14T00:24:15.501Z,1005.67
2018-03-14T00:25:15.512Z,1005.70
2018-03-14T00:26:15.524Z,1005.69
2018-03-14T00:27:15.534Z,1005.71
2018-03-14T00:28:15.547Z,1005.73
2018-03-14T00:29:15.565Z,1005.72
2018-03-14T00:30:15.573Z,1005.73
2018-03-14T00:31:15.583Z,1005.76
2018-03-14T00:32:15.598Z,1005.76
2018-03-14T00:33:15.610Z,1005.77
2018-03-14T00:34:15.620Z,1005.80
2018-03-14T00:35:15.631Z,1005.83
2018-03-14T00:36:15.644Z,1005.82
2018-03-14T00:37:15.657Z,1005.80
2018-03-14T00:38:15.668Z,1005.77
2018-03-14T00:39:15.684Z,1005.82
2018-03-14T00:40:15.690Z,1005.81
2018-03-14T00:41:15.705Z,1005.82
2018-03-14T00:42:15.715Z,1005.83
2018-03-14T00:43:15.730Z,1005.86
2018-03-14T00:44:15.742Z,1005.86
2018-03-14T00:45:15.753Z,1005.84
2018-03-14T00:46:15.765Z,1005.83
2018-03-14T00:47:15.779Z,1005.88
2018-03-14T00:48:15.789Z,1005.80
2018-03-14T00:49:15.801Z,1005.85
2018-03-14T00:50:15.812Z,1005.85
2018-03-14T00:51:15.824Z,1005.85
2018-03-14T00:52:15.837Z,1005.81
2018-03-14T00:53:15.851Z,1005.85
2018-03-14T00:54:15.861Z,1005.81
2018-03-14T00:55:15.874Z,1005.85
2018-03-14T00:56:15.884Z,1005.84
2018-03-14T00:57:15.899Z,1005.79
2018-03-14T00:58:15.916Z,1005.80
2018-03-14T00:59:15.918Z,1005.82
2018-03-14T01:00:15.932Z,1005.84
2018-03-14T01:01:15.943Z,1005.85
2018-03-14T01:02:15.955Z,1005.85
2018-03-14T01:03:15.969Z,1005.89
2018-03-14T01:04:15.979Z,1005.90
2018-03-14T01:05:15.991Z,1005.95
2018-03-14T01:06:16.002Z,1005.92
2018-03-14T01:07:16.017Z,1005.94
2018-03-14T01:08:16.027Z,1005.95
2018-03-14T01:09:16.038Z,1005.91
2018-03-14T01:10:16.049Z,1005.98
2018-03-14T01:11:16.062Z,1005.96
2018-03-14T01:12:16.073Z,1005.93
2018-03-14T01:13:16.088Z,1005.95
2018-03-14T01:14:16.109Z,1005.98
2018-03-14T01:15:16.108Z,1005.95
2018-03-14T01:16:16.121Z,1005.94
2018-03-14T01:17:16.132Z,1005.94
2018-03-14T01:18:16.143Z,1005.98
2018-03-14T01:19:16.155Z,1006.00
2018-03-14T01:20:16.169Z,1005.94
2018-03-14T01:21:16.177Z,1006.04
2018-03-14T01:22:16.190Z,1006.05
2018-03-14T01:23:16.202Z,1006.02
2018-03-14T01:24:16.217Z,1005.98
2018-03-14T01:25:16.226Z,1006.01
2018-03-14T01:26:16.237Z,1005.98
2018-03-14T01:27:16.250Z,1006.01
2018-03-14T01:28:16.262Z,1006.00
2018-03-14T01:29:16.274Z,1006.05
2018-03-14T01:30:16.286Z,1005.99
2018-03-14T01:31:16.297Z,1005.98
2018-03-14T01:32:16.309Z,1006.02
2018-03-14T01:33:16.321Z,1006.06
2018-03-14T01:34:16.334Z,1005.98
2018-03-14T01:35:16.345Z,1006.00
2018-03-14T01:36:16.359Z,1006.01
2018-03-14T01:37:16.370Z,1006.02
2018-03-14T01:38:16.381Z,1006.02
2018-03-14T01:39:16.392Z,1006.03
2018-03-14T01:40:16.406Z,1006.04
2018-03-14T01:41:16.419Z,1006.00
2018-03-14T01:42:16.426Z,1005.99
2018-03-14T01:43:16.439Z,1006.09
2018-03-14T01:44:16.449Z,1006.05
2018-03-14T01:45:16.465Z,1006.04
2018-03-14T01:46:16.477Z,1006.04
2018-03-14T01:47:16.486Z,1006.06
2018-03-14T01:48:16.501Z,1005.97
2018-03-14T01:49:16.508Z,1006.02
2018-03-14T01:50:16.522Z,1006.04
2018-03-14T01:51:16.539Z,1006.00
2018-03-14T01:52:16.545Z,1006.02
2018-03-14T01:53:16.557Z,1005.96
2018-03-14T01:54:16.568Z,1006.01
2018-03-14T01:55:16.581Z,1006.04
2018-03-14T01:56:16.592Z,1006.01
2018-03-14T01:57:16.606Z,1006.03
2018-03-14T01:58:16.613Z,1006.02
2018-03-14T01:59:16.628Z,1006.07
2018-03-14T02:00:16.640Z,1006.05
2018-03-14T02:01:16.650Z,1006.09
2018-03-14T02:02:16.663Z,1006.11
2018-03-14T02:03:16.673Z,1006.10
2018-03-14T02:04:16.684Z,1006.12
2018-03-14T02:05:16.696Z,1006.12
2018-03-14T02:06:16.709Z,1006.16
2018-03-14T02:07:16.720Z,1006.16
2018-03-14T02:08:16.733Z,1006.13
2018-03-14T02:09:16.746Z,1006.15
2018-03-14T02:10:16.756Z,1006.17
2018-03-14T02:11:16.771Z,1006.15
2018-03-14T02:12:16.778Z,1006.15
2018-03-14T02:13:16.793Z,1006.18
2018-03-14T02:14:16.802Z,1006.16
2018-03-14T02:15:16.814Z,1006.15
2018-03-14T02:16:16.827Z,1006.12
2018-03-14T02:17:16.839Z,1006.12
2018-03-14T02:18:16.849Z,1006.13
2018-03-14T02:19:16.861Z,1006.16
2018-03-14T02:20:16.873Z,1006.12
2018-03-14T02:21:16.885Z,1006.09
2018-03-14T02:22:16.894Z,1006.09
2018-03-14T02:23:16.906Z,1006.13
2018-03-14T02:24:16.917Z,1006.12
2018-03-14T02:25:16.929Z,1006.13
2018-03-14T02:26:16.940Z,1006.12
2018-03-14T02:27:16.953Z,1006.14
2018-03-14T02:28:16.964Z,1006.20
2018-03-14T02:29:16.977Z,1006.16
2018-03-14T02:30:16.988Z,1006.21
2018-03-14T02:31:16.998Z,1006.18
2018-03-14T02:32:17.013Z,1006.16
2018-03-14T02:33:17.026Z,1006.18
2018-03-14T02:34:17.037Z,1006.16
2018-03-14T02:35:17.048Z,1006.17
2018-03-14T02:36:17.057Z,1006.18
2018-03-14T02:37:17.070Z,1006.17
2018-03-14T02:38:17.084Z,1006.17
2018-03-14T02:39:17.094Z,1006.16
2018-03-14T02:40:17.105Z,1006.17
2018-03-14T02:41:17.121Z,1006.19
2018-03-14T02:42:17.129Z,1006.18
2018-03-14T02:43:17.140Z,1006.20
2018-03-14T02:44:17.151Z,1006.17
2018-03-14T02:45:17.165Z,1006.22
2018-03-14T02:46:17.176Z,1006.19
2018-03-14T02:47:17.190Z,1006.20
2018-03-14T02:48:17.200Z,1006.16
2018-03-14T02:49:17.212Z,1006.17
2018-03-14T02:50:17.221Z,1006.13
2018-03-14T02:51:17.233Z,1006.19
2018-03-14T02:52:17.246Z,1006.17
2018-03-14T02:53:17.258Z,1006.14
2018-03-14T02:54:17.269Z,1006.17
2018-03-14T02:55:17.279Z,1006.17
2018-03-14T02:56:17.294Z,1006.18
2018-03-14T02:57:17.305Z,1006.18
2018-03-14T02:58:17.315Z,1006.19
2018-03-14T02:59:17.332Z,1006.18
2018-03-14T03:00:17.339Z,1006.13
2018-03-14T03:01:17.351Z,1006.16
2018-03-14T03:02:17.363Z,1006.22
2018-03-14T03:03:17.375Z,1006.19
2018-03-14T03:04:17.387Z,1006.22
2018-03-14T03:05:17.400Z,1006.23
2018-03-14T03:06:17.408Z,1006.20
2018-03-14T03:07:17.422Z,1006.24
2018-03-14T03:08:17.436Z,1006.22
2018-03-14T03:09:17.447Z,1006.18
2018-03-14T03:10:17.456Z,1006.17
2018-03-14T03:11:17.469Z,1006.21
2018-03-14T03:12:17.481Z,1006.16
2018-03-14T03:13:17.494Z,1006.22
2018-03-14T03:14:17.508Z,1006.20
2018-03-14T03:15:17.514Z,1006.22
2018-03-14T03:16:17.525Z,1006.21
2018-03-14T03:17:17.538Z,1006.21
2018-03-14T03:18:17.548Z,1006.20
2018-03-14T03:19:17.560Z,1006.23
2018-03-14T03:20:17.574Z,1006.21
2018-03-14T03:21:17.585Z,1006.23
2018-03-14T03:22:17.590Z,1006.25
2018-03-14T03:23:17.601Z,1006.28
2018-03-14T03:24:17.613Z,1006.28
2018-03-14T03:25:17.625Z,1006.25
2018-03-14T03:26:17.637Z,1006.26
2018-03-14T03:27:17.652Z,1006.27
2018-03-14T03:28:17.664Z,1006.28
2018-03-14T03:29:17.675Z,1006.25
2018-03-14T03:30:17.691Z,1006.28
2018-03-14T03:31:17.695Z,1006.25
2018-03-14T03:32:17.709Z,1006.26
2018-03-14T03:33:17.719Z,1006.26
2018-03-14T03:34:17.736Z,1006.27
2018-03-14T03:35:17.743Z,1006.27
2018-03-14T03:36:17.755Z,1006.28
2018-03-14T03:37:17.770Z,1006.28
2018-03-14T03:38:17.777Z,1006.35
2018-03-14T03:39:17.789Z,1006.34
2018-03-14T03:40:17.806Z,1006.32
2018-03-14T03:41:17.814Z,1006.33
2018-03-14T03:42:17.825Z,1006.37
2018-03-14T03:43:17.840Z,1006.36
2018-03-14T03:44:17.847Z,1006.38
2018-03-14T03:45:17.865Z,1006.38
2018-03-14T03:46:17.872Z,1006.38
2018-03-14T03:47:17.884Z,1006.36
2018-03-14T03:48:17.896Z,1006.39
2018-03-14T03:49:17.908Z,1006.37
2018-03-14T03:50:17.918Z,1006.29
2018-03-14T03:51:17.932Z,1006.33
2018-03-14T03:52:17.943Z,1006.25
2018-03-14T03:53:17.953Z,1006.29
2018-03-14T03:54:17.970Z,1006.28
2018-03-14T03:55:17.979Z,1006.28
2018-03-14T03:56:17.991Z,1006.30
2018-03-14T03:57:18.003Z,1006.29
2018-03-14T03:58:18.013Z,1006.33
2018-03-14T03:59:18.024Z,1006.32
2018-03-14T04:00:18.037Z,1006.34
2018-03-14T04:01:18.049Z,1006.34
2018-03-14T04:02:18.060Z,1006.33
2018-03-14T04:03:18.073Z,1006.34
2018-03-14T04:04:18.085Z,1006.31
2018-03-14T04:05:18.096Z,1006.35
2018-03-14T04:06:18.107Z,1006.32
2018-03-14T04:07:18.122Z,1006.34
2018-03-14T04:08:18.131Z,1006.37
2018-03-14T04:09:18.142Z,1006.40
2018-03-14T04:10:18.154Z,1006.41
2018-03-14T04:11:18.168Z,1006.36
2018-03-14T04:12:18.182Z,1006.39
2018-03-14T04:13:18.192Z,1006.39
2018-03-14T04:14:18.200Z,1006.42
2018-03-14T04:15:18.212Z,1006.40
2018-03-14T04:16:18.227Z,1006.40
2018-03-14T04:17:18.235Z,1006.42
2018-03-14T04:18:18.248Z,1006.43
2018-03-14T04:19:18.258Z,1006.45
2018-03-14T04:20:18.270Z,1006.48
2018-03-14T04:21:18.282Z,1006.47
2018-03-14T04:22:18.292Z,1006.50
2018-03-14T04:23:18.303Z,1006.56
2018-03-14T04:24:18.315Z,1006.53
2018-03-14T04:25:18.328Z,1006.51
2018-03-14T04:26:18.337Z,1006.57
2018-03-14T04:27:18.352Z,1006.55
2018-03-14T04:28:18.362Z,1006.55
2018-03-14T04:29:18.376Z,1006.59
2018-03-14T04:30:18.397Z,1006.55
2018-03-14T04:31:18.396Z,1006.58
2018-03-14T04:32:18.410Z,1006.55
2018-03-14T04:33:18.424Z,1006.55
2018-03-14T04:34:18.433Z,1006.53
2018-03-14T04:35:18.446Z,1006.49
2018-03-14T04:36:18.457Z,1006.50
2018-03-14T04:37:18.468Z,1006.51
2018-03-14T04:38:18.481Z,1006.47
2018-03-14T04:39:18.492Z,1006.43
2018-03-14T04:40:18.502Z,1006.47
2018-03-14T04:41:18.515Z,1006.45
2018-03-14T04:42:18.528Z,1006.47
2018-03-14T04:43:18.538Z,1006.46
2018-03-14T04:44:18.550Z,1006.46
2018-03-14T04:45:18.562Z,1006.47
2018-03-14T04:46:18.573Z,1006.51
2018-03-14T04:47:18.586Z,1006.48
2018-03-14T04:48:18.597Z,1006.50
2018-03-14T04:49:18.608Z,1006.52
2018-03-14T04:50:18.619Z,1006.50
2018-03-14T04:51:18.631Z,1006.48
2018-03-14T04:52:18.647Z,1006.49
2018-03-14T04:53:18.656Z,1006.43
2018-03-14T04:54:18.666Z,1006.48
2018-03-14T04:55:18.677Z,1006.47
2018-03-14T04:56:18.719Z,1006.48
2018-03-14T04:57:18.702Z,1006.47
2018-03-14T04:58:18.711Z,1006.49
2018-03-14T04:59:18.723Z,1006.49
2018-03-14T05:00:18.736Z,1006.49
2018-03-14T05:01:18.751Z,1006.53
2018-03-14T05:02:18.801Z,1006.55
2018-03-14T05:03:18.769Z,1006.54
2018-03-14T05:04:18.783Z,1006.53
2018-03-14T05:05:18.794Z,1006.57
2018-03-14T05:06:18.807Z,1006.56
2018-03-14T05:07:18.818Z,1006.60
2018-03-14T05:08:18.829Z,1006.59
2018-03-14T05:09:18.847Z,1006.59
2018-03-14T05:10:18.852Z,1006.59
2018-03-14T05:11:18.864Z,1006.58
2018-03-14T05:12:18.875Z,1006.60
2018-03-14T05:13:18.888Z,1006.59
2018-03-14T05:14:18.900Z,1006.57
2018-03-14T05:15:18.912Z,1006.58
2018-03-14T05:16:18.922Z,1006.55
2018-03-14T05:17:18.934Z,1006.56
2018-03-14T05:18:18.945Z,1006.59
2018-03-14T05:19:18.956Z,1006.55
2018-03-14T05:20:18.969Z,1006.56
2018-03-14T05:21:18.986Z,1006.66
2018-03-14T05:22:18.993Z,1006.62
2018-03-14T05:23:19.004Z,1006.60
2018-03-14T05:24:19.021Z,1006.64
2018-03-14T05:25:19.028Z,1006.63
2018-03-14T05:26:19.040Z,1006.63
2018-03-14T05:27:19.052Z,1006.66
2018-03-14T05:28:19.064Z,1006.70
2018-03-14T05:29:19.076Z,1006.66
2018-03-14T05:30:19.087Z,1006.65
2018-03-14T05:31:19.099Z,1006.69
2018-03-14T05:32:19.111Z,1006.71
2018-03-14T05:33:19.125Z,1006.76
2018-03-14T05:34:19.135Z,1006.74
2018-03-14T05:35:19.146Z,1006.76
2018-03-14T05:36:19.160Z,1006.74
2018-03-14T05:37:19.172Z,1006.79
2018-03-14T05:38:19.187Z,1006.74
2018-03-14T05:39:19.194Z,1006.75
2018-03-14T05:40:19.208Z,1006.72
2018-03-14T05:41:19.221Z,1006.73
2018-03-14T05:42:19.234Z,1006.74
2018-03-14T05:43:19.241Z,1006.70
2018-03-14T05:44:19.257Z,1006.69
2018-03-14T05:45:19.266Z,1006.69
2018-03-14T05:46:19.280Z,1006.72
2018-03-14T05:47:19.290Z,1006.73
2018-03-14T05:48:19.300Z,1006.70
2018-03-14T05:49:19.314Z,1006.72
2018-03-14T05:50:19.324Z,1006.74
2018-03-14T05:51:19.335Z,1006.75
2018-03-14T05:52:19.348Z,1006.77
2018-03-14T05:53:19.361Z,1006.78
2018-03-14T05:54:19.369Z,1006.80
2018-03-14T05:55:19.383Z,1006.78
2018-03-14T05:56:19.396Z,1006.79
2018-03-14T05:57:19.406Z,1006.78
2018-03-14T05:58:19.418Z,1006.75
2018-03-14T05:59:19.430Z,1006.79
2018-03-14T06:00:19.442Z,1006.82
2018-03-14T06:01:19.452Z,1006.78
2018-03-14T06:02:19.469Z,1006.77
2018-03-14T06:03:19.476Z,1006.80
2018-03-14T06:04:19.491Z,1006.80
2018-03-14T06:05:19.518Z,1006.83
2018-03-14T06:06:19.513Z,1006.82
2018-03-14T06:07:19.554Z,1006.82
2018-03-14T06:08:19.539Z,1006.84
2018-03-14T06:09:19.550Z,1006.85
2018-03-14T06:10:19.559Z,1006.88
2018-03-14T06:11:19.571Z,1006.90
2018-03-14T06:12:19.585Z,1006.87
2018-03-14T06:13:19.596Z,1006.87
2018-03-14T06:14:19.608Z,1006.85
2018-03-14T06:15:19.619Z,1006.89
2018-03-14T06:16:19.632Z,1006.88
2018-03-14T06:17:19.645Z,1006.87
2018-03-14T06:18:19.655Z,1006.85
2018-03-14T06:19:19.667Z,1006.87
2018-03-14T06:20:19.680Z,1006.88
2018-03-14T06:21:19.691Z,1006.86
2018-03-14T06:22:19.704Z,1006.86
2018-03-14T06:23:19.717Z,1006.82
2018-03-14T06:24:19.726Z,1006.86
2018-03-14T06:25:19.738Z,1006.77
2018-03-14T06:26:19.752Z,1006.82
2018-03-14T06:27:19.761Z,1006.88
2018-03-14T06:28:19.774Z,1006.85
2018-03-14T06:29:19.786Z,1006.85
2018-03-14T06:30:19.810Z,1006.86
2018-03-14T06:31:19.811Z,1006.87
2018-03-14T06:32:19.822Z,1006.85
2018-03-14T06:33:19.833Z,1006.88
2018-03-14T06:34:19.846Z,1006.89
2018-03-14T06:35:19.857Z,1006.90
2018-03-14T06:36:19.873Z,1006.93
2018-03-14T06:37:19.887Z,1006.95
2018-03-14T06:38:19.896Z,1006.95
2018-03-14T06:39:19.907Z,1006.97
2018-03-14T06:40:19.917Z,1007.00
2018-03-14T06:41:19.931Z,1007.04
2018-03-14T06:42:19.940Z,1007.03
2018-03-14T06:43:19.954Z,1007.05
2018-03-14T06:44:19.970Z,1007.03
2018-03-14T06:45:19.978Z,1007.06
2018-03-14T06:46:19.990Z,1007.08
2018-03-14T06:47:20.001Z,1007.07
2018-03-14T06:48:20.014Z,1007.08
2018-03-14T06:49:20.028Z,1007.04
2018-03-14T06:50:20.038Z,1007.13
2018-03-14T06:51:20.051Z,1007.12
2018-03-14T06:52:20.065Z,1007.14
2018-03-14T06:53:20.077Z,1007.19
2018-03-14T06:54:20.088Z,1007.18
2018-03-14T06:55:20.100Z,1007.16
2018-03-14T06:56:20.111Z,1007.16
2018-03-14T06:57:20.128Z,1007.15
2018-03-14T06:58:20.136Z,1007.16
2018-03-14T06:59:20.157Z,1007.20
2018-03-14T07:00:20.161Z,1007.22
2018-03-14T07:01:20.173Z,1007.20
2018-03-14T07:02:20.183Z,1007.20
2018-03-14T07:03:20.196Z,1007.18
2018-03-14T07:04:20.213Z,1007.21
2018-03-14T07:05:20.221Z,1007.21
2018-03-14T07:06:20.231Z,1007.20
2018-03-14T07:07:20.244Z,1007.23
2018-03-14T07:08:20.256Z,1007.23
2018-03-14T07:09:20.270Z,1007.20
2018-03-14T07:10:20.280Z,1007.26
2018-03-14T07:11:20.290Z,1007.22
2018-03-14T07:12:20.304Z,1007.19
2018-03-14T07:13:20.318Z,1007.28
2018-03-14T07:14:20.330Z,1007.26
2018-03-14T07:15:20.344Z,1007.29
2018-03-14T07:16:20.354Z,1007.34
2018-03-14T07:17:20.367Z,1007.37
2018-03-14T07:18:20.380Z,1007.41
2018-03-14T07:19:20.389Z,1007.38
2018-03-14T07:20:20.402Z,1007.40
2018-03-14T07:21:20.413Z,1007.38
2018-03-14T07:22:20.426Z,1007.42
2018-03-14T07:23:20.439Z,1007.42
2018-03-14T07:24:20.452Z,1007.43
2018-03-14T07:25:20.566Z,1007.42
2018-03-14T07:26:20.475Z,1007.43
2018-03-14T07:27:20.488Z,1007.47
2018-03-14T07:28:20.502Z,1007.46
2018-03-14T07:29:20.514Z,1007.49
2018-03-14T07:30:20.526Z,1007.48
2018-03-14T07:31:20.541Z,1007.49
2018-03-14T07:32:20.551Z,1007.50
2018-03-14T07:33:20.563Z,1007.52
2018-03-14T07:34:20.572Z,1007.56
2018-03-14T07:35:20.590Z,1007.52
2018-03-14T07:36:20.644Z,1007.53
2018-03-14T07:37:20.612Z,1007.55
2018-03-14T07:38:20.622Z,1007.56
2018-03-14T07:39:20.635Z,1007.56
2018-03-14T07:40:20.956Z,1007.58
2018-03-14T07:41:20.662Z,1007.57
2018-03-14T07:42:20.672Z,1007.57
2018-03-14T07:43:20.689Z,1007.57
2018-03-14T07:44:20.696Z,1007.57
2018-03-14T07:45:20.714Z,1007.60
2018-03-14T07:46:20.722Z,1007.53
2018-03-14T07:47:20.736Z,1007.53
2018-03-14T07:48:20.748Z,1007.53
2018-03-14T07:49:20.860Z,1007.57
2018-03-14T07:50:20.774Z,1007.58
2018-03-14T07:51:20.786Z,1007.54
2018-03-14T07:52:20.797Z,1007.54
2018-03-14T07:53:20.813Z,1007.55
2018-03-14T07:54:20.821Z,1007.59
2018-03-14T07:55:20.834Z,1007.59
2018-03-14T07:56:20.846Z,1007.63
2018-03-14T07:57:20.863Z,1007.63
2018-03-14T07:58:20.872Z,1007.57
2018-03-14T07:59:20.885Z,1007.67
2018-03-14T08:00:20.899Z,1007.67
2018-03-14T08:01:20.915Z,1007.67
2018-03-14T08:02:20.923Z,1007.69
2018-03-14T08:03:20.937Z,1007.71
2018-03-14T08:04:20.951Z,1007.66
2018-03-14T08:05:20.962Z,1007.73
2018-03-14T08:06:20.972Z,1007.73
2018-03-14T08:07:20.987Z,1007.73
2018-03-14T08:08:20.999Z,1007.72
2018-03-14T08:09:21.015Z,1007.78
2018-03-14T08:10:21.025Z,1007.76
2018-03-14T08:11:21.040Z,1007.76
2018-03-14T08:12:21.054Z,1007.75
2018-03-14T08:13:21.244Z,1007.75
2018-03-14T08:14:21.076Z,1007.71
2018-03-14T08:15:21.091Z,1007.69
2018-03-14T08:16:21.259Z,1007.70
2018-03-14T08:17:21.179Z,1007.67
2018-03-14T08:18:21.140Z,1007.66
2018-03-14T08:19:21.139Z,1007.64
2018-03-14T08:20:21.181Z,1007.60
2018-03-14T08:21:21.216Z,1007.59
2018-03-14T08:22:21.177Z,1007.58
2018-03-14T08:23:21.194Z,1007.56
2018-03-14T08:24:21.201Z,1007.57
2018-03-14T08:25:21.218Z,1007.60
2018-03-14T08:26:21.226Z,1007.58
2018-03-14T08:27:21.240Z,1007.62
2018-03-14T08:28:21.257Z,1007.63
2018-03-14T08:29:21.267Z,1007.62
2018-03-14T08:30:21.278Z,1007.64
2018-03-14T08:31:21.292Z,1007.65
2018-03-14T08:32:21.307Z,1007.63
2018-03-14T08:33:21.318Z,1007.65
2018-03-14T08:34:21.357Z,1007.63
2018-03-14T08:35:21.344Z,1007.65
2018-03-14T08:36:21.358Z,1007.65
2018-03-14T08:37:21.370Z,1007.65
2018-03-14T08:38:21.382Z,1007.68
2018-03-14T08:39:21.394Z,1007.68
2018-03-14T08:40:21.413Z,1007.69
2018-03-14T08:41:21.431Z,1007.70
2018-03-14T08:42:21.435Z,1007.73
2018-03-14T08:43:21.448Z,1007.69
2018-03-14T08:44:21.512Z,1007.69
2018-03-14T08:45:21.474Z,1007.72
2018-03-14T08:46:21.491Z,1007.73
2018-03-14T08:47:21.504Z,1007.74
2018-03-14T08:48:21.519Z,1007.74
2018-03-14T08:49:21.526Z,1007.76
2018-03-14T08:50:21.675Z,1007.73
2018-03-14T08:51:21.555Z,1007.74
2018-03-14T08:52:21.568Z,1007.77
2018-03-14T08:53:21.582Z,1007.78
2018-03-14T08:54:21.664Z,1007.73
2018-03-14T08:55:21.659Z,1007.75
2018-03-14T08:56:22.480Z,1007.72
2018-03-14T08:57:22.333Z,1007.71
2018-03-14T08:58:23.522Z,1007.68
2018-03-14T08:59:22.541Z,1007.67
2018-03-14T09:01:21.798Z,1007.66
2018-03-14T09:02:21.702Z,1007.69
2018-03-14T09:03:21.721Z,1007.70
2018-03-14T09:04:21.737Z,1007.71
2018-03-14T09:05:21.996Z,1007.72
2018-03-14T09:06:21.758Z,1007.72
2018-03-14T09:07:21.773Z,1007.71
2018-03-14T09:08:21.787Z,1007.74
2018-03-14T09:09:21.796Z,1007.69
2018-03-14T09:10:21.814Z,1007.72
2018-03-14T09:11:21.827Z,1007.76
2018-03-14T09:12:21.841Z,1007.68
2018-03-14T09:13:21.854Z,1007.65
2018-03-14T09:14:21.867Z,1007.69
2018-03-14T09:15:21.880Z,1007.68
2018-03-14T09:16:21.898Z,1007.71
2018-03-14T09:17:21.909Z,1007.69
2018-03-14T09:18:21.921Z,1007.71
2018-03-14T09:19:21.958Z,1007.70
2018-03-14T09:20:21.947Z,1007.70
2018-03-14T09:21:21.996Z,1007.70
2018-03-14T09:22:21.977Z,1007.72
2018-03-14T09:23:21.990Z,1007.73
2018-03-14T09:24:22.006Z,1007.71
2018-03-14T09:25:22.019Z,1007.70
2018-03-14T09:26:22.032Z,1007.74
2018-03-14T09:27:22.051Z,1007.74
2018-03-14T09:28:22.063Z,1007.73
2018-03-14T09:29:22.073Z,1007.70
2018-03-14T09:30:22.099Z,1007.77
2018-03-14T09:31:22.100Z,1007.74
2018-03-14T09:32:22.115Z,1007.73
2018-03-14T09:33:22.129Z,1007.71
2018-03-14T09:34:22.143Z,1007.73
2018-03-14T09:35:22.156Z,1007.76
2018-03-14T09:36:22.183Z,1007.79
2018-03-14T09:37:22.183Z,1007.72
2018-03-14T09:38:22.199Z,1007.72
2018-03-14T09:39:22.224Z,1007.73
2018-03-14T09:40:22.225Z,1007.71
2018-03-14T09:41:22.237Z,1007.77
2018-03-14T09:42:22.253Z,1007.77
2018-03-14T09:43:22.402Z,1007.75
2018-03-14T09:44:22.282Z,1007.79
2018-03-14T09:45:22.296Z,1007.75
2018-03-14T09:46:22.310Z,1007.78
2018-03-14T09:47:22.328Z,1007.75
2018-03-14T09:48:22.337Z,1007.74
2018-03-14T09:49:22.350Z,1007.77
2018-03-14T09:50:22.363Z,1007.82
2018-03-14T09:51:22.414Z,1007.83
2018-03-14T09:52:22.393Z,1007.87
2018-03-14T09:53:22.407Z,1007.85
2018-03-14T09:54:22.419Z,1007.86
2018-03-14T09:55:22.434Z,1007.84
2018-03-14T09:56:22.446Z,1007.83
2018-03-14T09:57:22.463Z,1007.84
2018-03-14T09:58:22.475Z,1007.78
2018-03-14T09:59:22.489Z,1007.81
2018-03-14T10:00:22.508Z,1007.81
2018-03-14T10:01:22.519Z,1007.78
2018-03-14T10:02:22.538Z,1007.75
2018-03-14T10:03:22.545Z,1007.79
2018-03-14T10:04:22.561Z,1007.75
2018-03-14T10:05:22.575Z,1007.75
2018-03-14T10:06:22.590Z,1007.73
2018-03-14T10:07:24.521Z,1007.73
2018-03-14T10:08:24.073Z,1007.78
2018-03-14T10:09:24.174Z,1007.71
2018-03-14T10:10:22.643Z,1007.75
2018-03-14T10:11:22.662Z,1007.73
2018-03-14T10:12:22.673Z,1007.74
2018-03-14T10:13:22.692Z,1007.79
2018-03-14T10:14:22.704Z,1007.77
2018-03-14T10:15:22.715Z,1007.79
2018-03-14T10:16:22.731Z,1007.78
2018-03-14T10:17:22.746Z,1007.77
2018-03-14T10:18:22.760Z,1007.74
2018-03-14T10:19:22.791Z,1007.77
2018-03-14T10:20:22.782Z,1007.70
2018-03-14T10:21:22.796Z,1007.69
2018-03-14T10:22:22.863Z,1007.71
2018-03-14T10:23:22.825Z,1007.70
2018-03-14T10:24:22.838Z,1007.73
2018-03-14T10:25:22.854Z,1007.74
2018-03-14T10:26:22.866Z,1007.72
2018-03-14T10:27:22.879Z,1007.73
2018-03-14T10:28:22.895Z,1007.71
2018-03-14T10:29:22.908Z,1007.69
2018-03-14T10:30:22.921Z,1007.69
2018-03-14T10:31:23.444Z,1007.71
2018-03-14T10:32:22.950Z,1007.71
2018-03-14T10:33:22.963Z,1007.70
2018-03-14T10:34:22.978Z,1007.71
2018-03-14T10:35:22.990Z,1007.73
2018-03-14T10:36:23.026Z,1007.75
2018-03-14T10:37:23.019Z,1007.79
2018-03-14T10:38:23.037Z,1007.77
2018-03-14T10:39:23.046Z,1007.78
2018-03-14T10:40:23.072Z,1007.81
2018-03-14T10:41:23.089Z,1007.84
2018-03-14T10:42:23.091Z,1007.85
2018-03-14T10:43:23.104Z,1007.80
2018-03-14T10:44:23.121Z,1007.85
2018-03-14T10:45:23.131Z,1007.85
2018-03-14T10:46:23.776Z,1007.85
2018-03-14T10:47:23.159Z,1007.84
2018-03-14T10:48:23.174Z,1007.80
2018-03-14T10:49:23.186Z,1007.82
2018-03-14T10:50:23.202Z,1007.79
2018-03-14T10:51:23.213Z,1007.79
2018-03-14T10:52:23.228Z,1007.82
2018-03-14T10:53:23.244Z,1007.78
2018-03-14T10:54:23.257Z,1007.78
2018-03-14T10:55:23.270Z,1007.82
2018-03-14T10:56:23.284Z,1007.82
2018-03-14T10:57:23.298Z,1007.81
2018-03-14T10:58:23.311Z,1007.81
2018-03-14T10:59:23.326Z,1007.83
2018-03-14T11:00:23.339Z,1007.79
2018-03-14T11:01:23.354Z,1007.82
2018-03-14T11:02:23.367Z,1007.80
2018-03-14T11:03:23.382Z,1007.86
2018-03-14T11:04:23.396Z,1007.83
2018-03-14T11:05:23.421Z,1007.84
2018-03-14T11:06:23.424Z,1007.84
2018-03-14T11:07:23.438Z,1007.82
2018-03-14T11:08:23.452Z,1007.82
2018-03-14T11:09:23.465Z,1007.80
2018-03-14T11:10:23.480Z,1007.80
2018-03-14T11:11:23.493Z,1007.79
2018-03-14T11:12:23.509Z,1007.80
2018-03-14T11:13:23.524Z,1007.77
2018-03-14T11:14:23.549Z,1007.75
2018-03-14T11:15:23.553Z,1007.77
2018-03-14T11:16:23.565Z,1007.80
2018-03-14T11:17:23.581Z,1007.80
2018-03-14T11:18:23.593Z,1007.80
2018-03-14T11:19:23.607Z,1007.79
2018-03-14T11:20:23.634Z,1007.79
2018-03-14T11:21:23.640Z,1007.73
2018-03-14T11:22:23.651Z,1007.73
2018-03-14T11:23:23.665Z,1007.74
2018-03-14T11:24:23.678Z,1007.67
2018-03-14T11:25:23.695Z,1007.66
2018-03-14T11:26:23.707Z,1007.62
2018-03-14T11:27:23.724Z,1007.61
2018-03-14T11:28:23.741Z,1007.60
2018-03-14T11:29:23.752Z,1007.59
2018-03-14T11:30:23.769Z,1007.59
2018-03-14T11:31:23.779Z,1007.59
2018-03-14T11:32:23.795Z,1007.58
2018-03-14T11:33:23.824Z,1007.65
2018-03-14T11:34:23.823Z,1007.63
2018-03-14T11:35:23.838Z,1007.65
2018-03-14T11:36:23.853Z,1007.65
2018-03-14T11:37:23.867Z,1007.63
2018-03-14T11:38:23.882Z,1007.63
2018-03-14T11:39:23.897Z,1007.59
2018-03-14T11:40:23.911Z,1007.66
2018-03-14T11:41:23.926Z,1007.60
2018-03-14T11:42:23.961Z,1007.68
2018-03-14T11:43:23.953Z,1007.64
2018-03-14T11:44:23.968Z,1007.66
2018-03-14T11:45:23.983Z,1007.66
2018-03-14T11:46:23.997Z,1007.63
2018-03-14T11:47:24.011Z,1007.62
2018-03-14T11:48:24.026Z,1007.62
2018-03-14T11:49:24.042Z,1007.59
2018-03-14T11:50:24.055Z,1007.58
2018-03-14T11:51:24.069Z,1007.62
2018-03-14T11:52:24.086Z,1007.65
2018-03-14T11:53:24.102Z,1007.67
2018-03-14T11:54:24.114Z,1007.63
2018-03-14T11:55:24.129Z,1007.64
2018-03-14T11:56:24.146Z,1007.64
2018-03-14T11:57:24.161Z,1007.63
2018-03-14T11:58:24.172Z,1007.60
2018-03-14T11:59:24.187Z,1007.65
2018-03-14T12:00:24.213Z,1007.60
2018-03-14T12:01:24.217Z,1007.58
2018-03-14T12:02:24.229Z,1007.59
2018-03-14T12:03:24.245Z,1007.57
2018-03-14T12:04:24.260Z,1007.55
2018-03-14T12:05:24.276Z,1007.54
2018-03-14T12:06:24.289Z,1007.53